sensor_id;sensor_type;location;lat;lon;timestamp;temperature;humidity
68801;SHT31;55784;50.734;7.086;2023-06-14T00:00:35;19.74;52.77
68801;SHT31;55784;50.734;7.086;2023-06-14T00:03:02;19.68;52.79
68801;SHT31;55784;50.734;7.086;2023-06-14T00:05:29;19.64;53.14
68801;SHT31;55784;50.734;7.086;2023-06-14T00:07:54;19.62;52.77
68801;SHT31;55784;50.734;7.086;2023-06-14T00:10:20;19.57;52.96
68801;SHT31;55784;50.734;7.086;2023-06-14T00:12:45;19.60;52.93
68801;SHT31;55784;50.734;7.086;2023-06-14T00:15:11;19.54;53.13
68801;SHT31;55784;50.734;7.086;2023-06-14T00:17:36;19.43;53.33
68801;SHT31;55784;50.734;7.086;2023-06-14T00:20:04;19.40;53.38
68801;SHT31;55784;50.734;7.086;2023-06-14T00:22:33;19.35;53.54
68801;SHT31;55784;50.734;7.086;2023-06-14T00:24:58;19.37;53.46
68801;SHT31;55784;50.734;7.086;2023-06-14T00:27:24;19.30;53.01
68801;SHT31;55784;50.734;7.086;2023-06-14T00:29:50;19.23;53.35
68801;SHT31;55784;50.734;7.086;2023-06-14T00:32:15;19.24;53.11
68801;SHT31;55784;50.734;7.086;2023-06-14T00:34:40;19.19;53.44
68801;SHT31;55784;50.734;7.086;2023-06-14T00:37:06;19.17;53.78
68801;SHT31;55784;50.734;7.086;2023-06-14T00:39:31;19.04;53.86
68801;SHT31;55784;50.734;7.086;2023-06-14T00:41:57;18.99;54.01
68801;SHT31;55784;50.734;7.086;2023-06-14T00:44:23;18.93;54.65
68801;SHT31;55784;50.734;7.086;2023-06-14T00:46:48;19.03;54.71
68801;SHT31;55784;50.734;7.086;2023-06-14T00:49:15;18.93;54.91
68801;SHT31;55784;50.734;7.086;2023-06-14T00:51:42;19.00;55.17
68801;SHT31;55784;50.734;7.086;2023-06-14T00:54:08;18.97;54.36
68801;SHT31;55784;50.734;7.086;2023-06-14T00:56:35;18.93;56.71
68801;SHT31;55784;50.734;7.086;2023-06-14T00:59:00;18.79;57.56
68801;SHT31;55784;50.734;7.086;2023-06-14T01:01:26;18.70;58.28
68801;SHT31;55784;50.734;7.086;2023-06-14T01:03:53;18.49;58.19
68801;SHT31;55784;50.734;7.086;2023-06-14T01:06:26;18.49;58.45
68801;SHT31;55784;50.734;7.086;2023-06-14T01:09:06;18.36;58.64
68801;SHT31;55784;50.734;7.086;2023-06-14T01:11:38;18.24;59.05
68801;SHT31;55784;50.734;7.086;2023-06-14T01:14:06;18.26;59.23
68801;SHT31;55784;50.734;7.086;2023-06-14T01:16:33;18.16;59.21
68801;SHT31;55784;50.734;7.086;2023-06-14T01:19:01;18.09;59.90
68801;SHT31;55784;50.734;7.086;2023-06-14T01:21:27;18.05;59.80
68801;SHT31;55784;50.734;7.086;2023-06-14T01:23:53;17.98;60.15
68801;SHT31;55784;50.734;7.086;2023-06-14T01:26:20;17.87;60.64
68801;SHT31;55784;50.734;7.086;2023-06-14T01:28:46;17.81;60.33
68801;SHT31;55784;50.734;7.086;2023-06-14T01:31:18;17.77;60.51
68801;SHT31;55784;50.734;7.086;2023-06-14T01:33:45;17.74;60.83
68801;SHT31;55784;50.734;7.086;2023-06-14T01:36:12;17.74;60.37
68801;SHT31;55784;50.734;7.086;2023-06-14T01:38:38;17.74;60.66
68801;SHT31;55784;50.734;7.086;2023-06-14T01:41:04;17.69;60.67
68801;SHT31;55784;50.734;7.086;2023-06-14T01:43:30;17.66;60.71
68801;SHT31;55784;50.734;7.086;2023-06-14T01:45:57;17.74;60.99
68801;SHT31;55784;50.734;7.086;2023-06-14T01:48:23;17.71;60.91
68801;SHT31;55784;50.734;7.086;2023-06-14T01:50:49;17.64;61.13
68801;SHT31;55784;50.734;7.086;2023-06-14T01:53:15;17.63;61.14
68801;SHT31;55784;50.734;7.086;2023-06-14T01:55:40;17.62;61.46
68801;SHT31;55784;50.734;7.086;2023-06-14T01:58:09;17.57;61.25
68801;SHT31;55784;50.734;7.086;2023-06-14T02:00:35;17.63;61.59
68801;SHT31;55784;50.734;7.086;2023-06-14T02:03:01;17.62;61.48
68801;SHT31;55784;50.734;7.086;2023-06-14T02:05:27;17.62;61.35
68801;SHT31;55784;50.734;7.086;2023-06-14T02:07:52;17.53;61.24
68801;SHT31;55784;50.734;7.086;2023-06-14T02:10:20;17.43;61.43
68801;SHT31;55784;50.734;7.086;2023-06-14T02:12:46;17.33;61.71
68801;SHT31;55784;50.734;7.086;2023-06-14T02:15:11;17.24;62.06
68801;SHT31;55784;50.734;7.086;2023-06-14T02:17:45;17.19;62.51
68801;SHT31;55784;50.734;7.086;2023-06-14T02:20:11;17.10;62.58
68801;SHT31;55784;50.734;7.086;2023-06-14T02:22:36;17.05;63.04
68801;SHT31;55784;50.734;7.086;2023-06-14T02:25:02;17.01;63.20
68801;SHT31;55784;50.734;7.086;2023-06-14T02:27:28;16.96;63.44
68801;SHT31;55784;50.734;7.086;2023-06-14T02:29:53;16.95;63.51
68801;SHT31;55784;50.734;7.086;2023-06-14T02:32:18;16.91;63.72
68801;SHT31;55784;50.734;7.086;2023-06-14T02:34:43;16.83;64.07
68801;SHT31;55784;50.734;7.086;2023-06-14T02:37:09;16.78;64.27
68801;SHT31;55784;50.734;7.086;2023-06-14T02:39:34;16.72;64.54
68801;SHT31;55784;50.734;7.086;2023-06-14T02:42:00;16.67;64.62
68801;SHT31;55784;50.734;7.086;2023-06-14T02:44:26;16.64;64.55
68801;SHT31;55784;50.734;7.086;2023-06-14T02:46:53;16.61;64.46
68801;SHT31;55784;50.734;7.086;2023-06-14T02:49:18;16.59;64.59
68801;SHT31;55784;50.734;7.086;2023-06-14T02:51:44;16.57;64.90
68801;SHT31;55784;50.734;7.086;2023-06-14T02:54:09;16.52;64.75
68801;SHT31;55784;50.734;7.086;2023-06-14T02:56:35;16.52;64.95
68801;SHT31;55784;50.734;7.086;2023-06-14T02:59:01;16.54;64.35
68801;SHT31;55784;50.734;7.086;2023-06-14T03:01:27;16.47;64.45
68801;SHT31;55784;50.734;7.086;2023-06-14T03:04:03;16.45;64.86
68801;SHT31;55784;50.734;7.086;2023-06-14T03:06:29;16.48;64.96
68801;SHT31;55784;50.734;7.086;2023-06-14T03:08:56;16.48;64.83
68801;SHT31;55784;50.734;7.086;2023-06-14T03:11:22;16.45;64.84
68801;SHT31;55784;50.734;7.086;2023-06-14T03:13:47;16.44;64.67
68801;SHT31;55784;50.734;7.086;2023-06-14T03:16:12;16.41;64.92
68801;SHT31;55784;50.734;7.086;2023-06-14T03:18:38;16.42;64.75
68801;SHT31;55784;50.734;7.086;2023-06-14T03:21:03;16.38;64.71
68801;SHT31;55784;50.734;7.086;2023-06-14T03:23:28;16.38;64.83
68801;SHT31;55784;50.734;7.086;2023-06-14T03:25:54;16.37;64.85
68801;SHT31;55784;50.734;7.086;2023-06-14T03:28:19;16.32;65.02
68801;SHT31;55784;50.734;7.086;2023-06-14T03:30:45;16.34;64.90
68801;SHT31;55784;50.734;7.086;2023-06-14T03:33:10;16.27;65.02
68801;SHT31;55784;50.734;7.086;2023-06-14T03:35:36;16.30;65.17
68801;SHT31;55784;50.734;7.086;2023-06-14T03:38:01;16.35;65.31
68801;SHT31;55784;50.734;7.086;2023-06-14T03:40:27;16.35;65.11
68801;SHT31;55784;50.734;7.086;2023-06-14T03:42:54;16.38;65.27
68801;SHT31;55784;50.734;7.086;2023-06-14T03:45:19;16.40;65.36
68801;SHT31;55784;50.734;7.086;2023-06-14T03:47:44;16.42;65.41
68801;SHT31;55784;50.734;7.086;2023-06-14T03:50:10;16.42;65.39
68801;SHT31;55784;50.734;7.086;2023-06-14T03:52:36;16.40;65.53
68801;SHT31;55784;50.734;7.086;2023-06-14T03:55:02;16.42;65.20
68801;SHT31;55784;50.734;7.086;2023-06-14T03:57:29;16.38;65.10
68801;SHT31;55784;50.734;7.086;2023-06-14T03:59:54;16.42;65.15
68801;SHT31;55784;50.734;7.086;2023-06-14T04:02:19;16.41;65.26
68801;SHT31;55784;50.734;7.086;2023-06-14T04:04:45;16.41;65.12
68801;SHT31;55784;50.734;7.086;2023-06-14T04:07:14;16.47;65.06
68801;SHT31;55784;50.734;7.086;2023-06-14T04:09:40;16.45;65.05
68801;SHT31;55784;50.734;7.086;2023-06-14T04:12:06;16.49;65.01
68801;SHT31;55784;50.734;7.086;2023-06-14T04:14:34;16.55;64.82
68801;SHT31;55784;50.734;7.086;2023-06-14T04:16:59;17.26;63.35
68801;SHT31;55784;50.734;7.086;2023-06-14T04:19:25;18.04;60.81
68801;SHT31;55784;50.734;7.086;2023-06-14T04:21:50;18.68;58.86
68801;SHT31;55784;50.734;7.086;2023-06-14T04:24:16;19.40;57.05
68801;SHT31;55784;50.734;7.086;2023-06-14T04:26:45;19.88;55.35
68801;SHT31;55784;50.734;7.086;2023-06-14T04:29:11;20.30;54.53
68801;SHT31;55784;50.734;7.086;2023-06-14T04:31:40;20.57;53.84
68801;SHT31;55784;50.734;7.086;2023-06-14T04:34:05;20.93;52.79
68801;SHT31;55784;50.734;7.086;2023-06-14T04:36:35;21.08;52.22
68801;SHT31;55784;50.734;7.086;2023-06-14T04:39:05;21.49;51.42
68801;SHT31;55784;50.734;7.086;2023-06-14T04:41:31;21.66;51.24
68801;SHT31;55784;50.734;7.086;2023-06-14T04:44:00;21.74;51.27
68801;SHT31;55784;50.734;7.086;2023-06-14T04:46:27;22.06;50.32
68801;SHT31;55784;50.734;7.086;2023-06-14T04:48:53;22.39;50.03
68801;SHT31;55784;50.734;7.086;2023-06-14T04:51:19;22.86;48.97
68801;SHT31;55784;50.734;7.086;2023-06-14T04:53:47;23.26;47.13
68801;SHT31;55784;50.734;7.086;2023-06-14T04:56:14;23.61;45.33
68801;SHT31;55784;50.734;7.086;2023-06-14T04:58:40;23.55;44.61
68801;SHT31;55784;50.734;7.086;2023-06-14T05:01:05;23.73;44.52
68801;SHT31;55784;50.734;7.086;2023-06-14T05:03:30;23.82;44.05
68801;SHT31;55784;50.734;7.086;2023-06-14T05:05:56;23.63;44.22
68801;SHT31;55784;50.734;7.086;2023-06-14T05:08:22;23.34;44.35
68801;SHT31;55784;50.734;7.086;2023-06-14T05:10:49;23.42;44.44
68801;SHT31;55784;50.734;7.086;2023-06-14T05:13:14;23.70;43.70
68801;SHT31;55784;50.734;7.086;2023-06-14T05:15:39;23.77;43.71
68801;SHT31;55784;50.734;7.086;2023-06-14T05:18:05;24.14;42.77
68801;SHT31;55784;50.734;7.086;2023-06-14T05:20:30;24.44;42.75
68801;SHT31;55784;50.734;7.086;2023-06-14T05:22:56;24.67;40.89
68801;SHT31;55784;50.734;7.086;2023-06-14T05:25:22;24.79;40.78
68801;SHT31;55784;50.734;7.086;2023-06-14T05:27:47;24.79;41.41
68801;SHT31;55784;50.734;7.086;2023-06-14T05:30:14;24.98;40.95
68801;SHT31;55784;50.734;7.086;2023-06-14T05:32:40;25.25;40.43
68801;SHT31;55784;50.734;7.086;2023-06-14T05:35:06;25.53;40.30
68801;SHT31;55784;50.734;7.086;2023-06-14T05:37:31;25.77;39.60
68801;SHT31;55784;50.734;7.086;2023-06-14T05:39:57;25.39;38.90
68801;SHT31;55784;50.734;7.086;2023-06-14T05:42:22;25.15;39.62
68801;SHT31;55784;50.734;7.086;2023-06-14T05:44:48;24.99;40.04
68801;SHT31;55784;50.734;7.086;2023-06-14T05:47:14;25.30;40.22
68801;SHT31;55784;50.734;7.086;2023-06-14T05:53:02;25.60;39.09
68801;SHT31;55784;50.734;7.086;2023-06-14T05:55:29;25.80;39.93
68801;SHT31;55784;50.734;7.086;2023-06-14T05:58:16;25.47;39.29
68801;SHT31;55784;50.734;7.086;2023-06-14T06:00:58;25.02;39.84
68801;SHT31;55784;50.734;7.086;2023-06-14T06:26:48;24.48;42.01
68801;SHT31;55784;50.734;7.086;2023-06-14T06:32:55;24.54;41.35
68801;SHT31;55784;50.734;7.086;2023-06-14T06:36:05;24.54;41.44
68801;SHT31;55784;50.734;7.086;2023-06-14T06:42:22;23.67;42.96
68801;SHT31;55784;50.734;7.086;2023-06-14T06:48:38;23.80;43.50
68801;SHT31;55784;50.734;7.086;2023-06-14T06:51:28;23.83;43.48
68801;SHT31;55784;50.734;7.086;2023-06-14T06:54:33;23.42;44.02
68801;SHT31;55784;50.734;7.086;2023-06-14T06:58:00;23.48;44.03
68801;SHT31;55784;50.734;7.086;2023-06-14T07:00:48;23.52;44.65
68801;SHT31;55784;50.734;7.086;2023-06-14T07:03:54;23.56;43.98
68801;SHT31;55784;50.734;7.086;2023-06-14T07:06:57;23.39;43.59
68801;SHT31;55784;50.734;7.086;2023-06-14T07:09:46;22.78;45.21
68801;SHT31;55784;50.734;7.086;2023-06-14T07:12:23;22.74;45.06
68801;SHT31;55784;50.734;7.086;2023-06-14T07:14:48;22.56;46.01
68801;SHT31;55784;50.734;7.086;2023-06-14T07:17:14;22.63;45.30
68801;SHT31;55784;50.734;7.086;2023-06-14T07:19:39;22.36;45.20
68801;SHT31;55784;50.734;7.086;2023-06-14T07:22:04;21.88;46.58
68801;SHT31;55784;50.734;7.086;2023-06-14T07:24:30;21.81;46.67
68801;SHT31;55784;50.734;7.086;2023-06-14T07:26:55;21.81;46.80
68801;SHT31;55784;50.734;7.086;2023-06-14T07:29:21;22.02;46.71
68801;SHT31;55784;50.734;7.086;2023-06-14T07:31:46;22.03;46.78
68801;SHT31;55784;50.734;7.086;2023-06-14T07:34:12;22.24;46.49
68801;SHT31;55784;50.734;7.086;2023-06-14T07:36:37;22.44;46.19
68801;SHT31;55784;50.734;7.086;2023-06-14T07:39:04;22.44;45.82
68801;SHT31;55784;50.734;7.086;2023-06-14T07:41:31;22.24;45.37
68801;SHT31;55784;50.734;7.086;2023-06-14T07:43:56;22.17;45.64
68801;SHT31;55784;50.734;7.086;2023-06-14T07:46:21;22.30;45.06
68801;SHT31;55784;50.734;7.086;2023-06-14T07:48:47;22.43;43.98
68801;SHT31;55784;50.734;7.086;2023-06-14T07:51:13;22.29;44.09
68801;SHT31;55784;50.734;7.086;2023-06-14T07:53:38;22.36;44.35
68801;SHT31;55784;50.734;7.086;2023-06-14T07:56:04;22.50;44.20
68801;SHT31;55784;50.734;7.086;2023-06-14T07:58:29;22.64;42.92
68801;SHT31;55784;50.734;7.086;2023-06-14T08:00:55;22.75;43.73
68801;SHT31;55784;50.734;7.086;2023-06-14T08:03:20;22.84;43.42
68801;SHT31;55784;50.734;7.086;2023-06-14T08:05:47;22.78;42.34
68801;SHT31;55784;50.734;7.086;2023-06-14T08:08:13;22.73;43.41
68801;SHT31;55784;50.734;7.086;2023-06-14T08:10:38;22.86;43.28
68801;SHT31;55784;50.734;7.086;2023-06-14T08:13:03;23.05;43.34
68801;SHT31;55784;50.734;7.086;2023-06-14T08:15:29;23.22;43.15
68801;SHT31;55784;50.734;7.086;2023-06-14T08:17:54;23.00;42.76
68801;SHT31;55784;50.734;7.086;2023-06-14T08:20:20;22.86;43.10
68801;SHT31;55784;50.734;7.086;2023-06-14T08:22:45;23.01;43.43
68801;SHT31;55784;50.734;7.086;2023-06-14T08:25:12;23.18;43.49
68801;SHT31;55784;50.734;7.086;2023-06-14T08:27:37;23.25;43.09
68801;SHT31;55784;50.734;7.086;2023-06-14T08:30:03;23.21;42.25
68801;SHT31;55784;50.734;7.086;2023-06-14T08:32:28;23.37;42.16
68801;SHT31;55784;50.734;7.086;2023-06-14T08:34:54;23.53;41.87
68801;SHT31;55784;50.734;7.086;2023-06-14T08:37:19;23.52;41.70
68801;SHT31;55784;50.734;7.086;2023-06-14T08:39:45;23.59;41.87
68801;SHT31;55784;50.734;7.086;2023-06-14T08:42:12;23.61;41.44
68801;SHT31;55784;50.734;7.086;2023-06-14T08:44:39;23.28;41.30
68801;SHT31;55784;50.734;7.086;2023-06-14T08:47:05;23.02;42.41
68801;SHT31;55784;50.734;7.086;2023-06-14T08:49:32;23.14;42.39
68801;SHT31;55784;50.734;7.086;2023-06-14T08:51:58;23.31;41.64
68801;SHT31;55784;50.734;7.086;2023-06-14T08:54:28;23.38;41.49
68801;SHT31;55784;50.734;7.086;2023-06-14T08:56:58;23.37;41.34
68801;SHT31;55784;50.734;7.086;2023-06-14T08:59:27;23.07;41.52
68801;SHT31;55784;50.734;7.086;2023-06-14T09:01:53;23.21;41.11
68801;SHT31;55784;50.734;7.086;2023-06-14T09:04:22;23.28;40.69
68801;SHT31;55784;50.734;7.086;2023-06-14T09:06:47;22.83;41.55
68801;SHT31;55784;50.734;7.086;2023-06-14T09:09:23;22.47;41.71
68801;SHT31;55784;50.734;7.086;2023-06-14T09:11:52;22.74;41.69
68801;SHT31;55784;50.734;7.086;2023-06-14T09:14:18;23.10;42.39
68801;SHT31;55784;50.734;7.086;2023-06-14T09:16:44;22.98;41.18
68801;SHT31;55784;50.734;7.086;2023-06-14T09:19:14;23.02;41.47
68801;SHT31;55784;50.734;7.086;2023-06-14T09:21:47;23.35;41.31
68801;SHT31;55784;50.734;7.086;2023-06-14T09:24:14;23.59;40.64
68801;SHT31;55784;50.734;7.086;2023-06-14T09:26:39;23.82;40.12
68801;SHT31;55784;50.734;7.086;2023-06-14T09:29:05;23.86;38.56
68801;SHT31;55784;50.734;7.086;2023-06-14T09:31:31;23.55;37.89
68801;SHT31;55784;50.734;7.086;2023-06-14T09:34:01;23.55;38.35
68801;SHT31;55784;50.734;7.086;2023-06-14T09:36:27;23.48;37.56
68801;SHT31;55784;50.734;7.086;2023-06-14T09:39:02;23.51;38.51
68801;SHT31;55784;50.734;7.086;2023-06-14T09:44:00;23.59;37.72
68801;SHT31;55784;50.734;7.086;2023-06-14T09:46:26;23.46;38.06
68801;SHT31;55784;50.734;7.086;2023-06-14T09:48:52;23.16;38.40
68801;SHT31;55784;50.734;7.086;2023-06-14T09:51:24;23.39;38.29
68801;SHT31;55784;50.734;7.086;2023-06-14T09:54:03;23.56;38.03
68801;SHT31;55784;50.734;7.086;2023-06-14T09:56:37;23.42;38.30
68801;SHT31;55784;50.734;7.086;2023-06-14T09:59:09;23.66;37.84
68801;SHT31;55784;50.734;7.086;2023-06-14T10:01:36;23.59;37.06
68801;SHT31;55784;50.734;7.086;2023-06-14T10:04:07;23.48;37.73
68801;SHT31;55784;50.734;7.086;2023-06-14T10:06:36;23.22;38.21
68801;SHT31;55784;50.734;7.086;2023-06-14T10:09:08;23.44;38.55
68801;SHT31;55784;50.734;7.086;2023-06-14T10:11:35;23.25;39.32
68801;SHT31;55784;50.734;7.086;2023-06-14T10:14:02;23.26;39.25
68801;SHT31;55784;50.734;7.086;2023-06-14T10:16:32;23.56;39.90
68801;SHT31;55784;50.734;7.086;2023-06-14T10:19:01;23.92;39.88
68801;SHT31;55784;50.734;7.086;2023-06-14T10:21:49;24.34;39.09
68801;SHT31;55784;50.734;7.086;2023-06-14T10:24:19;24.54;37.97
68801;SHT31;55784;50.734;7.086;2023-06-14T10:26:53;24.57;38.16
68801;SHT31;55784;50.734;7.086;2023-06-14T10:29:19;24.68;38.49
68801;SHT31;55784;50.734;7.086;2023-06-14T10:31:46;24.38;37.55
68801;SHT31;55784;50.734;7.086;2023-06-14T10:34:21;24.10;38.17
68801;SHT31;55784;50.734;7.086;2023-06-14T10:37:11;23.70;39.04
68801;SHT31;55784;50.734;7.086;2023-06-14T10:42:06;24.17;38.40
68801;SHT31;55784;50.734;7.086;2023-06-14T10:44:34;24.51;38.87
68801;SHT31;55784;50.734;7.086;2023-06-14T10:47:07;24.77;38.41
68801;SHT31;55784;50.734;7.086;2023-06-14T10:49:43;24.96;38.53
68801;SHT31;55784;50.734;7.086;2023-06-14T10:52:17;24.99;37.56
68801;SHT31;55784;50.734;7.086;2023-06-14T10:57:29;24.16;39.33
68801;SHT31;55784;50.734;7.086;2023-06-14T10:59:57;24.06;39.51
68801;SHT31;55784;50.734;7.086;2023-06-14T11:05:08;24.27;39.49
68801;SHT31;55784;50.734;7.086;2023-06-14T11:10:39;24.05;39.14
68801;SHT31;55784;50.734;7.086;2023-06-14T11:13:06;24.18;39.25
68801;SHT31;55784;50.734;7.086;2023-06-14T11:15:33;24.24;39.63
68801;SHT31;55784;50.734;7.086;2023-06-14T11:18:07;24.43;39.32
68801;SHT31;55784;50.734;7.086;2023-06-14T11:20:35;24.61;39.27
68801;SHT31;55784;50.734;7.086;2023-06-14T11:23:01;25.09;38.46
68801;SHT31;55784;50.734;7.086;2023-06-14T11:25:27;25.19;38.54
68801;SHT31;55784;50.734;7.086;2023-06-14T11:27:56;25.36;38.09
68801;SHT31;55784;50.734;7.086;2023-06-14T11:30:22;24.43;39.09
68801;SHT31;55784;50.734;7.086;2023-06-14T11:32:52;24.33;39.73
68801;SHT31;55784;50.734;7.086;2023-06-14T11:35:19;24.18;39.47
68801;SHT31;55784;50.734;7.086;2023-06-14T11:37:48;24.36;40.06
68801;SHT31;55784;50.734;7.086;2023-06-14T11:40:14;24.69;40.40
68801;SHT31;55784;50.734;7.086;2023-06-14T11:42:40;25.15;39.98
68801;SHT31;55784;50.734;7.086;2023-06-14T11:45:10;25.58;39.56
68801;SHT31;55784;50.734;7.086;2023-06-14T11:47:38;25.66;39.10
68801;SHT31;55784;50.734;7.086;2023-06-14T11:50:08;25.72;39.11
68801;SHT31;55784;50.734;7.086;2023-06-14T11:52:35;25.73;39.01
68801;SHT31;55784;50.734;7.086;2023-06-14T11:55:02;25.65;38.45
68801;SHT31;55784;50.734;7.086;2023-06-14T11:57:30;25.73;38.46
68801;SHT31;55784;50.734;7.086;2023-06-14T11:59:55;25.86;37.91
68801;SHT31;55784;50.734;7.086;2023-06-14T12:02:21;25.73;38.35
68801;SHT31;55784;50.734;7.086;2023-06-14T12:04:47;25.82;37.16
68801;SHT31;55784;50.734;7.086;2023-06-14T12:07:17;26.01;36.92
68801;SHT31;55784;50.734;7.086;2023-06-14T12:12:22;26.21;36.26
68801;SHT31;55784;50.734;7.086;2023-06-14T12:14:50;26.16;36.90
68801;SHT31;55784;50.734;7.086;2023-06-14T12:17:16;26.04;35.97
68801;SHT31;55784;50.734;7.086;2023-06-14T12:19:45;25.86;37.15
68801;SHT31;55784;50.734;7.086;2023-06-14T12:22:12;25.70;36.59
68801;SHT31;55784;50.734;7.086;2023-06-14T12:24:37;25.66;36.79
68801;SHT31;55784;50.734;7.086;2023-06-14T12:27:03;25.73;37.56
68801;SHT31;55784;50.734;7.086;2023-06-14T12:29:30;25.87;36.72
68801;SHT31;55784;50.734;7.086;2023-06-14T12:32:05;26.07;36.37
68801;SHT31;55784;50.734;7.086;2023-06-14T12:34:30;25.98;36.41
68801;SHT31;55784;50.734;7.086;2023-06-14T12:36:57;26.04;37.40
68801;SHT31;55784;50.734;7.086;2023-06-14T12:39:22;26.20;37.16
68801;SHT31;55784;50.734;7.086;2023-06-14T12:41:49;26.25;37.12
68801;SHT31;55784;50.734;7.086;2023-06-14T12:44:15;26.23;36.78
68801;SHT31;55784;50.734;7.086;2023-06-14T12:46:42;26.03;37.87
68801;SHT31;55784;50.734;7.086;2023-06-14T12:49:08;25.65;37.72
68801;SHT31;55784;50.734;7.086;2023-06-14T12:51:34;25.62;37.88
68801;SHT31;55784;50.734;7.086;2023-06-14T12:54:00;25.56;37.91
68801;SHT31;55784;50.734;7.086;2023-06-14T12:56:25;25.76;37.83
68801;SHT31;55784;50.734;7.086;2023-06-14T12:58:51;25.09;38.32
68801;SHT31;55784;50.734;7.086;2023-06-14T13:01:16;25.19;38.61
68801;SHT31;55784;50.734;7.086;2023-06-14T13:03:42;25.39;38.02
68801;SHT31;55784;50.734;7.086;2023-06-14T13:06:07;25.46;37.73
68801;SHT31;55784;50.734;7.086;2023-06-14T13:08:33;25.73;38.46
68801;SHT31;55784;50.734;7.086;2023-06-14T13:10:58;26.07;38.20
68801;SHT31;55784;50.734;7.086;2023-06-14T13:35:27;26.23;37.53
68801;SHT31;55784;50.734;7.086;2023-06-14T14:41:37;26.31;37.28
68801;SHT31;55784;50.734;7.086;2023-06-14T14:51:29;26.03;37.35
68801;SHT31;55784;50.734;7.086;2023-06-14T16:09:16;26.44;36.55
68801;SHT31;55784;50.734;7.086;2023-06-14T16:12:11;26.65;35.80
68801;SHT31;55784;50.734;7.086;2023-06-14T16:14:37;26.89;36.04
68801;SHT31;55784;50.734;7.086;2023-06-14T16:17:03;27.22;35.62
68801;SHT31;55784;50.734;7.086;2023-06-14T16:19:28;27.42;35.39
68801;SHT31;55784;50.734;7.086;2023-06-14T16:25:40;28.08;35.64
68801;SHT31;55784;50.734;7.086;2023-06-14T16:28:05;28.07;35.11
68801;SHT31;55784;50.734;7.086;2023-06-14T16:30:37;27.80;35.31
68801;SHT31;55784;50.734;7.086;2023-06-14T16:33:16;27.60;35.93
68801;SHT31;55784;50.734;7.086;2023-06-14T16:35:41;27.17;35.92
68801;SHT31;55784;50.734;7.086;2023-06-14T16:38:09;26.98;36.74
68801;SHT31;55784;50.734;7.086;2023-06-14T16:40:48;26.24;36.62
68801;SHT31;55784;50.734;7.086;2023-06-14T16:46:46;25.91;36.96
68801;SHT31;55784;50.734;7.086;2023-06-14T16:49:35;25.86;37.05
68801;SHT31;55784;50.734;7.086;2023-06-14T16:52:00;26.27;37.02
68801;SHT31;55784;50.734;7.086;2023-06-14T17:07:30;27.07;35.53
68801;SHT31;55784;50.734;7.086;2023-06-14T17:24:09;27.43;34.93
68801;SHT31;55784;50.734;7.086;2023-06-14T17:26:59;27.80;34.80
68801;SHT31;55784;50.734;7.086;2023-06-14T17:29:24;28.08;33.98
68801;SHT31;55784;50.734;7.086;2023-06-14T17:32:03;28.42;33.56
68801;SHT31;55784;50.734;7.086;2023-06-14T17:42:12;27.53;34.44
68801;SHT31;55784;50.734;7.086;2023-06-14T17:48:17;27.97;34.71
68801;SHT31;55784;50.734;7.086;2023-06-14T17:51:11;28.31;33.74
68801;SHT31;55784;50.734;7.086;2023-06-14T17:53:39;28.44;33.80
68801;SHT31;55784;50.734;7.086;2023-06-14T17:56:37;28.58;33.03
68801;SHT31;55784;50.734;7.086;2023-06-14T17:59:19;28.52;33.08
68801;SHT31;55784;50.734;7.086;2023-06-14T18:01:55;28.27;33.57
68801;SHT31;55784;50.734;7.086;2023-06-14T18:04:20;28.58;33.77
68801;SHT31;55784;50.734;7.086;2023-06-14T18:06:45;28.75;33.17
68801;SHT31;55784;50.734;7.086;2023-06-14T18:09:11;28.79;33.12
68801;SHT31;55784;50.734;7.086;2023-06-14T18:11:36;28.88;33.25
68801;SHT31;55784;50.734;7.086;2023-06-14T18:14:01;28.84;32.84
68801;SHT31;55784;50.734;7.086;2023-06-14T18:16:27;28.96;32.87
68801;SHT31;55784;50.734;7.086;2023-06-14T18:18:52;28.78;32.89
68801;SHT31;55784;50.734;7.086;2023-06-14T18:21:19;28.66;33.21
68801;SHT31;55784;50.734;7.086;2023-06-14T18:23:46;28.65;33.31
68801;SHT31;55784;50.734;7.086;2023-06-14T18:26:17;28.62;32.82
68801;SHT31;55784;50.734;7.086;2023-06-14T18:28:42;28.39;33.70
68801;SHT31;55784;50.734;7.086;2023-06-14T18:31:07;28.28;33.79
68801;SHT31;55784;50.734;7.086;2023-06-14T18:33:33;28.17;33.54
68801;SHT31;55784;50.734;7.086;2023-06-14T18:35:58;27.94;34.21
68801;SHT31;55784;50.734;7.086;2023-06-14T18:38:24;28.04;34.39
68801;SHT31;55784;50.734;7.086;2023-06-14T18:40:50;28.14;34.10
68801;SHT31;55784;50.734;7.086;2023-06-14T18:43:17;28.17;33.66
68801;SHT31;55784;50.734;7.086;2023-06-14T18:45:42;28.17;34.04
68801;SHT31;55784;50.734;7.086;2023-06-14T18:48:08;28.10;33.50
68801;SHT31;55784;50.734;7.086;2023-06-14T18:50:33;27.84;34.17
68801;SHT31;55784;50.734;7.086;2023-06-14T18:52:59;27.61;34.82
68801;SHT31;55784;50.734;7.086;2023-06-14T18:55:25;27.63;34.44
68801;SHT31;55784;50.734;7.086;2023-06-14T18:57:50;27.64;34.72
68801;SHT31;55784;50.734;7.086;2023-06-14T19:00:16;27.51;34.32
68801;SHT31;55784;50.734;7.086;2023-06-14T19:02:41;27.35;34.83
68801;SHT31;55784;50.734;7.086;2023-06-14T19:05:08;27.37;34.87
68801;SHT31;55784;50.734;7.086;2023-06-14T19:07:33;26.92;35.20
68801;SHT31;55784;50.734;7.086;2023-06-14T19:09:58;26.62;35.68
68801;SHT31;55784;50.734;7.086;2023-06-14T19:12:24;26.23;36.69
68801;SHT31;55784;50.734;7.086;2023-06-14T19:14:49;25.80;37.96
68801;SHT31;55784;50.734;7.086;2023-06-14T19:17:14;25.47;37.98
68801;SHT31;55784;50.734;7.086;2023-06-14T19:19:43;25.22;38.31
68801;SHT31;55784;50.734;7.086;2023-06-14T19:22:10;25.02;38.35
68801;SHT31;55784;50.734;7.086;2023-06-14T19:24:35;24.82;38.50
68801;SHT31;55784;50.734;7.086;2023-06-14T19:27:01;24.58;39.21
68801;SHT31;55784;50.734;7.086;2023-06-14T19:29:26;24.48;39.08
68801;SHT31;55784;50.734;7.086;2023-06-14T19:31:52;24.30;39.87
68801;SHT31;55784;50.734;7.086;2023-06-14T19:34:18;24.20;40.04
68801;SHT31;55784;50.734;7.086;2023-06-14T19:36:44;24.05;40.27
68801;SHT31;55784;50.734;7.086;2023-06-14T19:39:09;24.00;40.43
68801;SHT31;55784;50.734;7.086;2023-06-14T19:41:35;23.86;40.45
68801;SHT31;55784;50.734;7.086;2023-06-14T19:44:00;23.72;40.54
68801;SHT31;55784;50.734;7.086;2023-06-14T19:46:26;23.63;41.05
68801;SHT31;55784;50.734;7.086;2023-06-14T19:48:51;23.51;41.41
68801;SHT31;55784;50.734;7.086;2023-06-14T19:51:17;23.41;41.68
68801;SHT31;55784;50.734;7.086;2023-06-14T19:53:43;23.32;41.58
68801;SHT31;55784;50.734;7.086;2023-06-14T19:56:08;23.25;41.81
68801;SHT31;55784;50.734;7.086;2023-06-14T19:58:34;23.18;41.93
68801;SHT31;55784;50.734;7.086;2023-06-14T20:01:02;23.10;42.05
68801;SHT31;55784;50.734;7.086;2023-06-14T20:03:28;23.00;42.23